KCBM/CBM METAR and TAF weather

Enter ICAO airport designator
Station Type Date Time Source
KCBM METAR 2018/09/21 20:56 UTC NOAA

KCBM 212056Z 19006KT 10SM CLR 33/22 A2999 RMK AO2 SLP156 T03320223 57023 $


Station Type Date Time Source
KCBM Decoded METAR 2018/09/21 20:56 UTC NOAA

Columbus Air Force Base, MS, United States (KCBM) 33-39N 088-27W
Sep 21, 2018 - 04:56 PM EDT / 2018.09.21 2056 UTC
Wind: from the S (190 degrees) at 7 MPH (6 KT):0
Visibility: 10 mile(s):0
Sky conditions: clear
Temperature: 91.8 F (33.2 C)
Heat index: 99.3 F (37.4 C):1
Dew Point: 72.1 F (22.3 C)
Relative Humidity: 52%
Pressure (altimeter): 29.99 in. Hg (1015 hPa)
Pressure tendency: 0.07 inches (2.3 hPa) lower than three hours ago
ob: KCBM 212056Z 19006KT 10SM CLR 33/22 A2999 RMK AO2 SLP156 T03320223 57023
cycle: 21

Station Type Date Time Source
KCBM TAF 2018/09/21 09:06 UTC NOAA

TAF TAF KCBM 210900Z 2109/2215 15006KT 9999 FEW020 SCT100 QNH3000INS
BECMG 2118/2119 18009KT 9999 VCSH BKN045 QNH2996INS
TEMPO 2120/2123 8000 -SHRA
BECMG 2123/2124 14006KT 9999 NSW SCT040 QNH2996INS TX33/2120Z TN21/2112Z


Example: see airport list